• Join FlightAware (Why Join?)
  • Login
  • US Flag 
02:45AM EDT


 

Airport Tracker/Info


-or-


 

Live Flight TrackerFlight Track Log ✈ WEW1540 ✈ 03-May-2013 ✈ CYYN - CYKY

Flight Track Log - Related Links

Times and Time Zones

All times are in EDT time to prevent confusion due to time zone crossing. See the WEW1540 flight status page for this flight to view local times or setup timezone preferences in your user account.

Time Position Orientation Groundspeed Altitude Reporting Facility
EDT Latitude Longitude Course Direction KTS MPH feet Rate Location/Type
09:11AM 50.6149 -108.0673 323° Northwest  Level FlightAware Approximate
09:12AM 50.6478 -108.1064 323° Northwest  Level FlightAware Approximate
09:13AM 50.6806 -108.1455 323° Northwest  Level FlightAware Approximate
09:14AM 50.7135 -108.1847 323° Northwest  Level FlightAware Approximate
09:15AM 50.7463 -108.2239 323° Northwest  Level FlightAware Approximate
09:16AM 50.7792 -108.2632 323° Northwest  Level FlightAware Approximate
09:17AM 50.8120 -108.3026 323° Northwest  Level FlightAware Approximate
09:18AM 50.8448 -108.3419 323° Northwest  Level FlightAware Approximate
09:19AM 50.8776 -108.3814 323° Northwest  Level FlightAware Approximate
09:20AM 50.9104 -108.4209 323° Northwest  Level FlightAware Approximate
09:21AM 50.9431 -108.4605 323° Northwest  Level FlightAware Approximate
09:22AM 50.9759 -108.5001 323° Northwest  Level FlightAware Approximate
09:22AM 51.1000 -108.7000 323° Northwest 230 265 6,000  Level Winnipeg Center
09:23AM 51.0086 -108.5398 323° Northwest  Level FlightAware Approximate
09:24AM 51.0414 -108.5795 323° Northwest  Level FlightAware Approximate
09:24AM 51.1508 -108.7579 324° Northwest  Level Estimated
09:25AM 51.0741 -108.6193 323° Northwest  Level FlightAware Approximate
09:26AM 51.1068 -108.6591 323° Northwest  Level FlightAware Approximate
09:27AM 51.1395 -108.6991 323° Northwest  Level FlightAware Approximate
09:31AM 51.3848 -109.0268 324° Northwest  Level Estimated
09:32AM 51.4182 -109.0655 324° Northwest  Level Estimated
09:33AM 51.4516 -109.1042 324° Northwest  Level Estimated
09:34AM 51.4849 -109.1429 324° Northwest  Level Estimated
09:35AM 51.5175 -109.1808 324° Northwest  Level Estimated
09:36AM 51.5175 -109.1808 270° West  Level Estimated
09:37AM 51.5175 -109.1808 270° West  Level Estimated
09:38AM 51.5175 -109.1808 270° West  Level Estimated
09:39AM 51.5175 -109.1808 270° West  Level Estimated
09:40AM 51.5175 -109.1808 270° West  Level Estimated
09:41AM 51.5175 -109.1808 270° West  Level Estimated
09:42AM 51.5175 -109.1808 270° West  Level Estimated
09:43AM 51.5175 -109.1808 270° West  Level Estimated
09:44AM 51.5175 -109.1808 270° West  Level Estimated
09:45AM 51.5175 -109.1808 270° West  Level Estimated
09:46AM 51.5175 -109.1808 270° West  Level Estimated
09:47AM 51.5175 -109.1808 270° West  Level Estimated
09:48AM 51.5175 -109.1808 270° West  Level Estimated
09:49AM 51.5175 -109.1808 270° West  Level Estimated
09:50AM 51.5175 -109.1808 270° West  Level Estimated
09:51AM 51.5175 -109.1808 270° West  Level Estimated
09:52AM 51.5175 -109.1808 270° West  Level Estimated
09:53AM 51.5175 -109.1808 270° West  Level Estimated
09:54AM 51.5175 -109.1808 270° West  Level Estimated